»·PEaware :: N7791P KALW-74S

N7791P :: KALW-74S

FLIGHT INFORMATION

Flight Status: Arrived
Operator: Privately registered:
United States
More flights under this callsign
Pilot: Tom L. (6372)
Aircraft: PIPER PA-24 COMMANCHE
(PA24)
More flights by this aircraft type
Origin: KALW Walla Walla Regl
United States
Destination: 74S Anacortes
United States
More flights between these airports :: More routes between these airports
Route: LYLES V520 PSC V204 GLEED V468 TITON V4 BLAKO
File this flight plan on PilotEdge
Remarks:
Altitude:
(Current/Filed)
10,000ft
Speed:
(Current/Filed)
145kts
Departed: 29-Aug-20 11:18 AM
Arrived: 29-Aug-20 12:57 PM
Distance/Time
Traveled:
229nm/1:39
Distance/Time
To Go:
Arrived

Flight Plot

Page will automatically refresh every two minutes.

Flight plan parsing failed; only flown route is shown


Map Options




Map Legend


Flown Route
Filed Route
Departure Airport
Arrival Airport
Navaid (VOR, NDB)
Fix

Horizontal Profiles

Position Reports

Time Latitude Longitude Heading Altitude Ground
Speed
29-Aug-20 11:06 46.091698 -118.281681 217 1195ft 0kts
29-Aug-20 11:07 46.091694 -118.281685 217 1195ft 0kts
29-Aug-20 11:08 46.091691 -118.281689 218 1195ft 0kts
29-Aug-20 11:09 46.091687 -118.281693 219 1195ft 0kts
29-Aug-20 11:10 46.091683 -118.281697 220 1195ft 0kts
29-Aug-20 11:11 46.091763 -118.282236 4 1195ft 3kts
29-Aug-20 11:12 46.092836 -118.281184 37 1195ft 7kts
29-Aug-20 11:13 46.093659 -118.280434 31 1195ft 0kts
29-Aug-20 11:14 46.093664 -118.280431 31 1195ft 0kts
29-Aug-20 11:15 46.093667 -118.280427 31 1195ft 0kts
29-Aug-20 11:16 46.097309 -118.276481 36 1195ft 28kts
29-Aug-20 11:17 46.097931 -118.278391 215 1195ft 44kts
29-Aug-20 11:18 46.076059 -118.302065 215 1849ft 118kts
29-Aug-20 11:19 46.072754 -118.337698 316 2979ft 120kts
29-Aug-20 11:20 46.089239 -118.381787 283 4061ft 135kts
29-Aug-20 11:21 46.103783 -118.435488 290 4824ft 156kts
29-Aug-20 11:22 46.121578 -118.493468 290 5506ft 159kts
29-Aug-20 11:23 46.138744 -118.549356 290 6096ft 144kts
29-Aug-20 11:24 46.154982 -118.602446 289 6788ft 148kts
29-Aug-20 11:25 46.169139 -118.658386 284 7469ft 151kts
29-Aug-20 11:26 46.181878 -118.715546 283 8112ft 147kts
29-Aug-20 11:27 46.193956 -118.770001 283 8711ft 134kts
29-Aug-20 11:28 46.204956 -118.819812 282 9325ft 126kts
29-Aug-20 11:29 46.215527 -118.867764 282 9961ft 129kts
29-Aug-20 11:30 46.227413 -118.921686 283 9976ft 144kts
29-Aug-20 11:31 46.239605 -118.977153 283 9987ft 143kts
29-Aug-20 11:32 46.251904 -119.033452 283 10015ft 156kts
29-Aug-20 11:33 46.265299 -119.094721 283 10012ft 166kts
29-Aug-20 11:34 46.279131 -119.155636 284 9990ft 150kts
29-Aug-20 11:35 46.292621 -119.213628 284 10012ft 163kts
29-Aug-20 11:36 46.307208 -119.276515 285 10000ft 168kts
29-Aug-20 11:37 46.321380 -119.337713 284 9979ft 151kts
29-Aug-20 11:38 46.334353 -119.394123 284 9986ft 145kts
29-Aug-20 11:39 46.347556 -119.451731 285 10010ft 163kts
29-Aug-20 11:40 46.361568 -119.512674 285 9983ft 150kts
29-Aug-20 11:41 46.374409 -119.568939 284 9987ft 145kts
29-Aug-20 11:42 46.387198 -119.625054 285 10001ft 150kts
29-Aug-20 11:43 46.400620 -119.684036 285 10018ft 165kts
29-Aug-20 11:44 46.414996 -119.747515 285 10009ft 168kts
29-Aug-20 11:45 46.429241 -119.810509 285 10006ft 164kts
29-Aug-20 11:46 46.442849 -119.870835 285 9991ft 150kts
29-Aug-20 11:47 46.455895 -119.929021 285 10012ft 159kts
29-Aug-20 11:48 46.469268 -119.988630 285 9988ft 149kts
29-Aug-20 11:49 46.481947 -120.045401 285 9996ft 147kts
29-Aug-20 11:50 46.494394 -120.101257 285 9997ft 147kts
29-Aug-20 11:51 46.507209 -120.158910 285 9998ft 147kts
29-Aug-20 11:52 46.519917 -120.216244 285 10004ft 151kts
29-Aug-20 11:54 46.532832 -120.274635 285 10003ft 153kts
29-Aug-20 11:55 46.545711 -120.333030 285 9998ft 149kts
29-Aug-20 11:56 46.558258 -120.390124 285 10001ft 148kts
29-Aug-20 11:57 46.571231 -120.446994 296 9998ft 149kts
29-Aug-20 11:58 46.594962 -120.496448 301 10001ft 149kts
29-Aug-20 11:59 46.619398 -120.547417 301 10016ft 163kts
29-Aug-20 12:00 46.644746 -120.600436 301 9998ft 152kts
29-Aug-20 12:01 46.669506 -120.652474 301 10026ft 167kts
29-Aug-20 12:02 46.695189 -120.706379 301 10009ft 153kts
29-Aug-20 12:03 46.718906 -120.756370 301 10024ft 148kts
29-Aug-20 12:04 46.742204 -120.805558 301 10034ft 147kts
29-Aug-20 12:05 46.765657 -120.855143 301 10042ft 147kts
29-Aug-20 12:06 46.789549 -120.905773 301 10061ft 159kts
29-Aug-20 12:07 46.814225 -120.958053 301 10054ft 150kts
29-Aug-20 12:08 46.837649 -121.007866 301 10067ft 148kts
29-Aug-20 12:09 46.861768 -121.059288 301 10093ft 164kts
29-Aug-20 12:09 46.882944 -121.104373 301 10082ft 157kts
29-Aug-20 12:10 46.907185 -121.156188 301 9987ft 155kts
29-Aug-20 12:12 46.935309 -121.216405 301 9914ft 149kts
29-Aug-20 12:13 46.958554 -121.266300 300 9929ft 148kts
29-Aug-20 12:13 46.977852 -121.307775 300 9939ft 147kts
29-Aug-20 12:14 47.000804 -121.357167 300 9973ft 146kts
29-Aug-20 12:16 47.027587 -121.414956 300 9982ft 147kts
29-Aug-20 12:16 47.046730 -121.456317 300 9983ft 147kts
29-Aug-20 12:17 47.069709 -121.506032 300 9983ft 147kts
29-Aug-20 12:18 47.093075 -121.556738 300 10001ft 157kts
29-Aug-20 12:19 47.117530 -121.609787 300 9981ft 151kts
29-Aug-20 12:20 47.140677 -121.660182 300 9989ft 147kts
29-Aug-20 12:21 47.163487 -121.709934 300 9983ft 147kts
29-Aug-20 12:22 47.186364 -121.759905 300 9983ft 146kts
29-Aug-20 12:23 47.209110 -121.809685 300 9984ft 146kts
29-Aug-20 12:24 47.231840 -121.859512 300 9986ft 146kts
29-Aug-20 12:25 47.254620 -121.909543 300 9987ft 146kts
29-Aug-20 12:26 47.277329 -121.959502 300 9988ft 147kts
29-Aug-20 12:27 47.300044 -122.009567 300 9995ft 145kts
29-Aug-20 12:28 47.322450 -122.059034 300 9988ft 144kts
29-Aug-20 12:29 47.359663 -122.084783 335 9990ft 152kts
29-Aug-20 12:30 47.399941 -122.104576 335 9989ft 152kts
29-Aug-20 12:31 47.440222 -122.124566 335 9990ft 153kts
29-Aug-20 12:32 47.480641 -122.144695 334 9990ft 153kts
29-Aug-20 12:33 47.520986 -122.164816 334 9989ft 153kts
29-Aug-20 12:34 47.561485 -122.185043 334 9989ft 153kts
29-Aug-20 12:35 47.601918 -122.205275 335 9988ft 153kts
29-Aug-20 12:36 47.642552 -122.225638 335 9990ft 154kts
29-Aug-20 12:37 47.683155 -122.246018 335 9990ft 154kts
29-Aug-20 12:38 47.723421 -122.266262 335 9991ft 154kts
29-Aug-20 12:39 47.764611 -122.287005 335 9993ft 154kts
29-Aug-20 12:40 47.805244 -122.307502 335 9995ft 154kts
29-Aug-20 12:41 47.845885 -122.328037 335 9997ft 154kts
29-Aug-20 12:42 47.886657 -122.348674 335 9998ft 154kts
29-Aug-20 12:43 47.927191 -122.369230 335 9956ft 157kts
29-Aug-20 12:44 47.971563 -122.391792 336 9328ft 174kts
29-Aug-20 12:45 48.018397 -122.415582 337 8678ft 180kts
29-Aug-20 12:46 48.066341 -122.439999 338 8022ft 182kts
29-Aug-20 12:47 48.114380 -122.464535 338 7365ft 182kts
29-Aug-20 12:48 48.162629 -122.489222 338 6710ft 183kts
29-Aug-20 12:49 48.210763 -122.513885 339 6049ft 182kts
29-Aug-20 12:50 48.258836 -122.538634 338 5389ft 182kts
29-Aug-20 12:51 48.306622 -122.563218 339 4719ft 180kts
29-Aug-20 12:52 48.353934 -122.587624 340 4077ft 179kts
29-Aug-20 12:53 48.399609 -122.611240 340 3785ft 174kts
29-Aug-20 12:54 48.444297 -122.640976 324 2843ft 180kts
29-Aug-20 12:55 48.482392 -122.670692 9 883ft 106kts
29-Aug-20 12:56 48.499464 -122.661735 28 245ft 6kts
29-Aug-20 12:57 48.499533 -122.661012 200 245ft 7kts
29-Aug-20 12:58 48.497993 -122.661373 198 245ft 0kts
29-Aug-20 12:59 48.497993 -122.661374 198 245ft 0kts
29-Aug-20 13:00 48.497993 -122.661374 198 245ft 0kts
29-Aug-20 13:01 48.497993 -122.661374 198 245ft 0kts
29-Aug-20 13:02 48.497993 -122.661374 198 245ft 0kts
29-Aug-20 13:03 48.497993 -122.661374 198 245ft 0kts
29-Aug-20 13:04 48.497993 -122.661374 198 245ft 0kts
29-Aug-20 13:05 48.497993 -122.661374 198 245ft 0kts
29-Aug-20 13:06 48.497993 -122.661374 198 245ft 0kts
29-Aug-20 13:07 48.497993 -122.661374 198 245ft 0kts
29-Aug-20 13:08 48.497993 -122.661374 198 245ft 0kts
29-Aug-20 13:09 48.497993 -122.661374 198 245ft 0kts
29-Aug-20 13:10 48.497993 -122.661374 198 245ft 0kts

Navigation Log

Ident Type
Flight plan parsing failed, navigation log unavailable